Time;durP1;ratioP1;P1;durP2;ratioP2;P2;SDS_P1;SDS_P2;PMS_P1;PMS_P2;Temp;Humidity;BMP_temperature;BMP_pressure;BME280_temperature;BME280_humidity;BME280_pressure;Samples;Min_cycle;Max_cycle;Signal;HPM_P1;HPM_P2
2022/05/30 00:02:14;;;;;;;2.65;1.10;;;;;;;17.80;37.86;100874.84;5057939;28;20135;-76
2022/05/30 00:04:40;;;;;;;2.45;0.90;;;;;;;17.79;37.29;100868.47;5059026;28;20084;-76
2022/05/30 00:07:08;;;;;;;3.92;1.00;;;;;;;17.79;37.62;100871.22;5064531;28;20045;-76
2022/05/30 00:09:34;;;;;;;2.63;1.10;;;;;;;17.78;37.61;100868.66;5054548;28;20509;-76
2022/05/30 00:12:02;;;;;;;3.03;1.60;;;;;;;17.78;37.26;100874.16;5054504;28;20049;-76
2022/05/30 00:14:29;;;;;;;4.88;1.50;;;;;;;17.76;37.69;100870.69;5065194;28;20119;-75
2022/05/30 00:16:56;;;;;;;2.08;1.00;;;;;;;17.77;37.84;100866.91;5053583;28;20401;-76
2022/05/30 00:19:23;;;;;;;2.30;1.15;;;;;;;17.74;37.73;100868.06;5061276;28;20049;-76
2022/05/30 00:21:52;;;;;;;3.47;1.02;;;;;;;17.75;38.12;100868.94;5062032;28;20167;-76
2022/05/30 00:24:19;;;;;;;4.68;1.42;;;;;;;17.74;37.43;100864.47;5059647;28;20139;-76
2022/05/30 00:26:45;;;;;;;2.58;1.02;;;;;;;17.73;37.29;100868.22;5068421;28;20044;-76
2022/05/30 00:29:12;;;;;;;3.20;1.15;;;;;;;17.73;37.84;100865.47;5054025;28;20531;-76
2022/05/30 00:31:38;;;;;;;3.13;1.23;;;;;;;17.72;37.32;100860.97;5059783;28;20049;-76
2022/05/30 00:34:05;;;;;;;2.95;1.20;;;;;;;17.70;37.29;100852.94;5064534;28;20448;-76
2022/05/30 00:36:31;;;;;;;3.05;1.10;;;;;;;17.70;37.97;100855.66;5052843;28;20150;-76
2022/05/30 00:38:58;;;;;;;3.70;1.20;;;;;;;17.67;37.44;100846.84;5055392;28;20489;-76
2022/05/30 00:41:26;;;;;;;2.45;1.02;;;;;;;17.67;37.50;100861.44;5053612;28;20095;-76
2022/05/30 00:43:52;;;;;;;4.50;1.38;;;;;;;17.65;37.13;100855.22;5050883;28;20127;-76
2022/05/30 00:46:19;;;;;;;2.53;1.00;;;;;;;17.65;37.21;100851.63;5066088;28;20044;-76
2022/05/30 00:48:53;;;;;;;5.07;1.30;;;;;;;17.66;37.50;100850.59;5048390;28;20728;-76
2022/05/30 00:51:32;;;;;;;3.25;1.17;;;;;;;17.63;37.12;100839.91;5061862;28;20505;-76
2022/05/30 00:54:01;;;;;;;2.83;1.30;;;;;;;17.59;37.59;100839.31;5057471;28;20041;-76
2022/05/30 00:56:32;;;;;;;3.53;1.23;;;;;;;17.59;37.71;100839.31;5059533;28;20045;-76
2022/05/30 00:59:00;;;;;;;3.78;1.20;;;;;;;17.56;37.68;100838.75;5059987;28;20041;-76
2022/05/30 01:01:28;;;;;;;2.20;1.00;;;;;;;17.55;38.01;100843.34;5062389;28;20049;-76
2022/05/30 01:06:46;;;;;;;2.67;1.00;;;;;;;17.55;38.01;100842.50;5068509;28;20978;-76
2022/05/30 01:09:17;;;;;;;3.00;1.13;;;;;;;17.56;38.21;100842.34;5063545;28;20059;-76
2022/05/30 01:11:50;;;;;;;4.30;1.55;;;;;;;17.58;38.36;100845.81;5045056;28;20063;-76
2022/05/30 01:14:18;;;;;;;3.47;1.20;;;;;;;17.57;38.10;100844.09;5055760;28;20127;-76
2022/05/30 01:16:44;;;;;;;2.67;0.98;;;;;;;17.56;38.28;100841.47;5057440;28;20513;-76
2022/05/30 01:19:39;;;;;;;2.78;1.10;;;;;;;17.58;38.55;100840.31;5069441;28;20083;-76
2022/05/30 01:22:14;;;;;;;2.03;1.00;;;;;;;17.56;38.57;100844.22;5045453;28;20050;-76
2022/05/30 01:25:08;;;;;;;3.22;1.10;;;;;;;17.59;38.39;100844.81;5038295;28;20086;-76
2022/05/30 01:27:34;;;;;;;;;;;;;;;17.31;38.52;100846.56;5061774;28;20123;-76
2022/05/30 01:30:14;;;;;;;2.00;1.17;;;;;;;17.55;38.21;100845.22;5065473;28;20023;-76
2022/05/30 01:32:41;;;;;;;2.47;1.20;;;;;;;17.55;38.17;100843.34;5057119;28;20464;-76
2022/05/30 01:35:09;;;;;;;2.95;1.20;;;;;;;17.57;37.84;100841.34;5063100;28;20043;-76
2022/05/30 01:37:35;;;;;;;3.80;1.30;;;;;;;17.56;37.76;100841.47;5071660;28;20527;-76
2022/05/30 01:40:02;;;;;;;3.40;1.30;;;;;;;17.57;38.00;100843.22;5067545;28;20119;-76
2022/05/30 01:42:29;;;;;;;4.03;1.30;;;;;;;17.56;38.36;100836.84;5043030;28;20698;-76
2022/05/30 01:44:55;;;;;;;3.08;1.30;;;;;;;17.55;37.99;100832.38;5063490;28;20127;-76
2022/05/30 01:47:22;;;;;;;4.97;1.27;;;;;;;17.54;37.83;100833.41;5048476;28;20049;-76
2022/05/30 01:49:49;;;;;;;3.42;1.17;;;;;;;17.55;38.00;100828.75;5061138;28;20063;-76
2022/05/30 01:52:15;;;;;;;3.50;1.15;;;;;;;17.55;37.99;100826.03;5057761;28;20044;-76
2022/05/30 01:54:42;;;;;;;3.50;1.35;;;;;;;17.54;37.75;100827.06;5063758;28;20132;-76
2022/05/30 01:57:08;;;;;;;4.22;1.15;;;;;;;17.53;38.00;100815.22;5087306;28;20076;-76
2022/05/30 01:59:34;;;;;;;2.67;0.98;;;;;;;17.53;37.74;100823.44;5077304;28;20147;-76
2022/05/30 02:02:01;;;;;;;4.82;1.20;;;;;;;17.53;38.02;100823.44;5069780;28;20049;-76
2022/05/30 02:04:28;;;;;;;3.00;1.55;;;;;;;17.52;38.25;100821.72;5074572;22;20141;-75
2022/05/30 02:06:55;;;;;;;3.67;1.20;;;;;;;17.53;38.32;100822.59;5054049;28;20069;-75
2022/05/30 02:09:23;;;;;;;4.38;1.27;;;;;;;17.51;38.28;100819.97;5042556;28;20619;-76
2022/05/30 02:11:49;;;;;;;2.97;1.40;;;;;;;17.51;38.08;100822.72;5024996;28;20127;-75
2022/05/30 02:14:16;;;;;;;3.80;1.30;;;;;;;17.52;38.20;100816.22;5033672;28;20055;-75
2022/05/30 02:17:01;;;;;;;5.32;1.50;;;;;;;17.50;38.21;100815.50;5048129;28;20134;-75
2022/05/30 02:19:29;;;;;;;3.47;1.40;;;;;;;17.49;38.22;100813.75;5046840;28;20052;-75
2022/05/30 02:21:55;;;;;;;3.40;1.10;;;;;;;17.47;38.14;100808.41;5049385;28;20095;-75
2022/05/30 02:24:22;;;;;;;3.95;1.58;;;;;;;17.47;37.83;100813.03;5049433;28;20649;-76
2022/05/30 02:26:49;;;;;;;3.83;1.20;;;;;;;17.46;38.08;100811.28;5046291;28;20136;-75
2022/05/30 02:29:16;;;;;;;3.70;1.50;;;;;;;17.44;37.71;100811.47;5047221;28;20152;-75
2022/05/30 02:31:43;;;;;;;3.30;1.23;;;;;;;17.43;38.00;100814.38;5047400;28;20140;-75
2022/05/30 02:36:55;;;;;;;3.60;1.35;;;;;;;17.35;37.36;100814.22;5052496;28;20072;-75
2022/05/30 02:39:24;;;;;;;3.28;1.30;;;;;;;17.35;37.82;100811.50;5052485;28;20468;-75
2022/05/30 02:41:51;;;;;;;2.58;1.27;;;;;;;17.32;37.41;100800.78;5050939;28;20448;-75
2022/05/30 02:44:20;;;;;;;2.95;1.30;;;;;;;17.31;38.19;100815.53;5041934;28;20128;-75
2022/05/30 02:46:48;;;;;;;5.47;1.52;;;;;;;17.29;38.30;100807.47;5042721;28;20041;-75
2022/05/30 02:49:15;;;;;;;3.80;1.50;;;;;;;17.27;38.35;100800.38;5046429;28;20492;-74
2022/05/30 02:51:43;;;;;;;4.20;1.65;;;;;;;17.27;38.08;100800.38;5034026;28;20053;-75
2022/05/30 02:54:11;;;;;;;3.35;1.77;;;;;;;17.26;38.28;100812.38;5048198;28;20493;-75
2022/05/30 02:56:39;;;;;;;2.25;1.20;;;;;;;17.26;38.26;100812.38;5048056;28;20083;-75
2022/05/30 02:59:06;;;;;;;3.33;1.15;;;;;;;17.25;38.35;100811.50;5041476;28;20055;-75
2022/05/30 03:01:34;;;;;;;5.18;1.80;;;;;;;17.26;38.40;100817.84;5047633;28;20048;-75
2022/05/30 03:04:02;;;;;;;2.75;1.25;;;;;;;17.25;38.15;100811.50;5026089;28;20481;-75
2022/05/30 03:06:29;;;;;;;3.85;1.60;;;;;;;17.24;38.65;100817.13;5031256;28;20048;-75
2022/05/30 03:08:58;;;;;;;4.07;2.00;;;;;;;17.24;38.41;100820.75;5035492;28;20128;-75
2022/05/30 03:11:25;;;;;;;3.25;1.50;;;;;;;17.24;38.72;100817.13;5047930;28;20543;-75
2022/05/30 03:13:53;;;;;;;3.78;1.33;;;;;;;17.25;38.55;100816.13;5023818;28;20139;-75
2022/05/30 03:16:19;;;;;;;3.75;1.40;;;;;;;17.25;38.83;100818.88;5030778;28;20071;-75
2022/05/30 03:18:47;;;;;;;4.35;1.50;;;;;;;17.23;38.65;100816.25;5028647;28;20190;-75
2022/05/30 03:21:13;;;;;;;3.83;1.40;;;;;;;17.24;38.60;100823.47;5048550;28;20132;-75
2022/05/30 03:23:40;;;;;;;2.75;1.30;;;;;;;17.24;38.88;100822.59;5039778;28;20171;-75
2022/05/30 03:26:07;;;;;;;3.35;1.25;;;;;;;17.25;39.15;100824.34;5027603;28;20063;-75
2022/05/30 03:28:35;;;;;;;3.65;1.50;;;;;;;17.25;38.68;100825.22;5042997;28;20456;-75
2022/05/30 03:31:02;;;;;;;3.75;1.40;;;;;;;17.24;38.75;100825.34;5042559;28;20149;-75
2022/05/30 03:33:29;;;;;;;3.65;1.50;;;;;;;17.24;38.65;100828.09;5036550;28;20053;-75
2022/05/30 03:35:56;;;;;;;3.92;1.60;;;;;;;17.23;39.16;100826.38;5047720;28;20577;-75
2022/05/30 03:38:22;;;;;;;2.90;1.17;;;;;;;17.23;38.73;100826.38;5038109;28;20136;-75
2022/05/30 03:40:49;;;;;;;3.47;1.52;;;;;;;17.23;38.99;100823.63;5045133;28;20274;-76
2022/05/30 03:43:16;;;;;;;5.15;1.67;;;;;;;17.21;38.70;100832.03;5045083;28;20045;-75
2022/05/30 03:45:44;;;;;;;5.05;1.88;;;;;;;17.23;39.07;100834.59;5045120;28;20053;-75
2022/05/30 03:48:12;;;;;;;4.30;1.40;;;;;;;17.23;39.05;100838.22;5037696;28;20044;-75
2022/05/30 03:50:40;;;;;;;2.78;1.30;;;;;;;17.23;39.21;100837.34;5029980;28;20076;-75
2022/05/30 03:53:07;;;;;;;3.08;1.20;;;;;;;17.21;38.30;100831.16;5023610;28;20095;-75
2022/05/30 03:55:39;;;;;;;4.70;1.52;;;;;;;17.21;38.49;100834.78;5038064;28;20057;-76
2022/05/30 03:58:07;;;;;;;4.20;1.30;;;;;;;17.17;38.83;100840.66;5040243;28;20041;-75
2022/05/30 04:00:35;;;;;;;5.18;1.25;;;;;;;17.17;38.20;100840.66;5037104;28;20489;-75
2022/05/30 04:03:03;;;;;;;3.17;1.15;;;;;;;17.16;38.17;100847.16;5029374;28;20183;-75
2022/05/30 04:05:30;;;;;;;4.22;1.30;;;;;;;17.13;38.68;100842.00;5046994;28;20076;-75
2022/05/30 04:07:57;;;;;;;3.72;1.20;;;;;;;17.12;38.45;100838.38;5036331;28;20435;-75
2022/05/30 04:10:25;;;;;;;3.10;1.40;;;;;;;17.11;38.64;100840.25;5024422;28;20052;-75
2022/05/30 04:13:00;;;;;;;3.58;1.17;;;;;;;17.15;38.97;100839.94;5046321;28;20136;-75
2022/05/30 04:15:26;;;;;;;3.40;1.20;;;;;;;17.09;38.55;100835.91;5026183;28;20132;-75
2022/05/30 04:17:53;;;;;;;3.35;1.30;;;;;;;17.09;38.44;100833.16;5041480;28;20080;-75
2022/05/30 04:20:19;;;;;;;3.53;1.33;;;;;;;17.08;38.25;100836.91;5053559;28;20625;-75
2022/05/30 04:22:46;;;;;;;3.75;1.38;;;;;;;17.07;38.58;100835.19;5044410;28;20128;-75
2022/05/30 04:25:12;;;;;;;3.40;1.33;;;;;;;17.05;38.46;100838.06;5045068;28;20051;-75
2022/05/30 04:27:39;;;;;;;5.78;1.35;;;;;;;17.04;38.62;100833.63;5038114;28;20044;-75
2022/05/30 04:30:08;;;;;;;5.35;1.73;;;;;;;17.05;38.70;100835.31;5035319;28;20084;-75
2022/05/30 04:32:36;;;;;;;2.25;1.23;;;;;;;17.04;38.82;100840.97;5022115;28;20056;-75
2022/05/30 04:35:05;;;;;;;5.13;1.30;;;;;;;17.03;38.75;100837.38;5046659;28;20512;-75
2022/05/30 04:37:32;;;;;;;4.65;1.40;;;;;;;17.01;38.67;100841.25;5042139;28;20131;-75
2022/05/30 04:39:59;;;;;;;3.60;1.27;;;;;;;16.99;38.94;100841.41;5046381;28;20482;-75
2022/05/30 04:42:25;;;;;;;3.75;1.60;;;;;;;16.98;39.05;100838.78;5044115;28;20049;-75
2022/05/30 04:44:52;;;;;;;4.07;1.50;;;;;;;16.98;38.54;100845.16;5030143;28;20080;-75
2022/05/30 04:47:18;;;;;;;4.70;1.50;;;;;;;16.97;38.62;100842.53;5044794;28;20135;-75
2022/05/30 04:49:47;;;;;;;3.20;1.35;;;;;;;16.96;38.57;100847.19;5028785;28;20052;-75
2022/05/30 04:52:14;;;;;;;3.90;1.27;;;;;;;16.95;38.66;100845.44;5038110;28;20071;-75
2022/05/30 04:54:41;;;;;;;6.88;1.60;;;;;;;16.95;38.68;100847.31;5039909;28;20084;-75
2022/05/30 04:57:08;;;;;;;6.40;1.48;;;;;;;16.95;38.92;100853.69;5040290;28;20041;-75
2022/05/30 04:59:38;;;;;;;5.13;1.65;;;;;;;16.96;38.83;100852.69;5040204;28;20132;-75
2022/05/30 05:02:05;;;;;;;5.25;1.40;;;;;;;16.92;38.72;100856.69;5044939;28;20080;-75
2022/05/30 05:04:32;;;;;;;4.72;1.73;;;;;;;16.92;38.59;100855.84;5043583;28;20047;-75
2022/05/30 05:06:59;;;;;;;5.10;1.52;;;;;;;16.90;38.76;100858.72;5044157;28;21407;-74
2022/05/30 05:09:34;;;;;;;4.47;1.80;;;;;;;16.90;38.70;100863.31;5045262;28;20501;-75
2022/05/30 05:12:01;;;;;;;3.67;1.67;;;;;;;16.90;39.10;100866.06;5045075;28;20055;-76
2022/05/30 05:14:27;;;;;;;3.33;1.45;;;;;;;16.90;39.08;100864.19;5044240;28;20052;-75
2022/05/30 05:16:53;;;;;;;3.45;1.60;;;;;;;16.92;39.10;100870.41;5045756;28;20770;-75
2022/05/30 05:19:20;;;;;;;4.65;1.75;;;;;;;16.93;39.48;100877.63;5048484;28;20079;-73
2022/05/30 05:21:47;;;;;;;5.60;1.83;;;;;;;16.95;39.12;100878.38;5046017;28;20063;-74
2022/05/30 05:24:16;;;;;;;4.10;1.60;;;;;;;16.98;39.38;100874.44;5045456;28;20049;-73
2022/05/30 05:26:44;;;;;;;4.78;1.40;;;;;;;16.98;39.18;100874.44;5039181;28;20045;-73
2022/05/30 05:29:11;;;;;;;5.10;1.70;;;;;;;16.96;39.06;100882.84;5031662;28;20405;-74
2022/05/30 05:31:37;;;;;;;5.00;1.67;;;;;;;16.98;39.05;100882.69;5044832;28;20083;-75
2022/05/30 05:34:09;;;;;;;3.58;1.65;;;;;;;17.01;39.26;100885.16;5046239;28;20168;-75
2022/05/30 05:36:41;;;;;;;5.13;1.65;;;;;;;17.01;39.12;100887.88;5025279;28;20065;-75
2022/05/30 05:39:09;;;;;;;4.22;1.92;;;;;;;17.00;39.04;100887.03;5042033;28;20568;-75
2022/05/30 05:41:36;;;;;;;8.20;1.77;;;;;;;17.01;39.36;100887.88;5045161;28;20159;-75
2022/05/30 05:44:03;;;;;;;5.25;1.90;;;;;;;17.03;38.97;100888.63;5046505;28;20482;-75
2022/05/30 05:46:31;;;;;;;6.47;1.77;;;;;;;17.04;39.18;100895.84;5042345;28;20041;-74
2022/05/30 05:48:59;;;;;;;4.70;1.80;;;;;;;17.05;39.15;100892.06;5037649;28;20056;-76
2022/05/30 05:51:26;;;;;;;5.22;1.90;;;;;;;17.06;39.28;100891.06;5039073;28;20521;-74
2022/05/30 05:53:53;;;;;;;4.57;2.00;;;;;;;17.06;39.35;100896.53;5029637;28;20075;-75
2022/05/30 05:56:23;;;;;;;6.07;1.92;;;;;;;17.09;39.47;100902.63;5045263;28;20045;-75
2022/05/30 05:58:50;;;;;;;6.10;1.77;;;;;;;17.09;39.59;100897.13;5043255;28;20461;-72
2022/05/30 06:01:23;;;;;;;5.72;1.90;;;;;;;17.12;39.19;100901.47;5024392;28;20128;-73
2022/05/30 06:04:03;;;;;;;8.23;3.55;;;;;;;17.13;39.16;100894.13;5040195;28;20049;-73
2022/05/30 06:06:31;;;;;;;6.03;2.00;;;;;;;17.11;39.15;100888.78;5042254;28;20179;-73
2022/05/30 06:09:04;;;;;;;6.95;2.35;;;;;;;17.13;39.42;100898.56;5043591;28;20432;-74
2022/05/30 06:11:33;;;;;;;6.95;1.77;;;;;;;17.15;39.04;100892.94;5038113;28;20067;-73
2022/05/30 06:14:00;;;;;;;3.72;1.67;;;;;;;17.13;39.03;100884.84;5042329;28;20101;-73
2022/05/30 06:16:30;;;;;;;5.05;1.85;;;;;;;17.17;39.05;100888.19;5041183;28;20045;-73
2022/05/30 06:19:00;;;;;;;5.50;1.55;;;;;;;17.18;39.18;100892.66;5042449;28;20105;-73
2022/05/30 06:21:29;;;;;;;6.95;2.40;;;;;;;17.22;39.29;100894.09;5048090;28;20318;-73
2022/05/30 06:23:57;;;;;;;6.00;2.33;;;;;;;17.23;39.07;100900.44;5018264;28;20048;-73
2022/05/30 06:26:25;;;;;;;6.47;1.65;;;;;;;17.24;39.38;100905.78;5044221;28;20091;-73
2022/05/30 06:28:57;;;;;;;5.53;1.60;;;;;;;17.27;39.08;100904.66;5043383;28;20441;-73
2022/05/30 06:31:28;;;;;;;8.07;2.73;;;;;;;17.28;38.79;100900.91;5038768;28;20049;-73
2022/05/30 06:33:55;;;;;;;5.95;1.58;;;;;;;17.29;38.77;100900.75;5047100;28;20045;-73
2022/05/30 06:36:23;;;;;;;4.65;1.60;;;;;;;17.32;38.48;100908.69;5045973;28;20474;-73
2022/05/30 06:38:51;;;;;;;2.85;1.30;;;;;;;17.32;38.25;100908.69;5040105;28;20137;-73
2022/05/30 06:41:19;;;;;;;3.60;1.20;;;;;;;17.34;38.24;100906.66;5030266;28;20139;-72
2022/05/30 06:43:57;;;;;;;5.15;1.85;;;;;;;17.36;38.05;100912.03;5043345;28;20071;-73
2022/05/30 06:46:24;;;;;;;4.95;1.42;;;;;;;17.35;38.51;100910.28;5048843;28;20080;-74
2022/05/30 06:48:55;;;;;;;6.03;1.30;;;;;;;17.36;38.30;100909.28;5047132;28;20255;-73
2022/05/30 06:51:24;;;;;;;3.95;1.33;;;;;;;17.38;38.26;100912.72;5049291;28;20049;-73
2022/05/30 06:53:52;;;;;;;4.30;1.45;;;;;;;17.39;38.03;100917.19;5040702;28;20879;-72
2022/05/30 06:56:21;;;;;;;6.90;2.10;;;;;;;17.41;38.19;100913.31;5041145;28;20042;-72
2022/05/30 06:58:52;;;;;;;8.57;3.40;;;;;;;17.41;37.81;100913.31;5031600;28;20045;-72
2022/05/30 07:01:28;;;;;;;5.57;1.80;;;;;;;17.45;37.86;100923.00;5048538;28;20136;-73
2022/05/30 07:03:55;;;;;;;4.30;1.50;;;;;;;17.43;37.70;100927.75;5047950;28;20091;-73
2022/05/30 07:06:28;;;;;;;3.97;1.60;;;;;;;17.47;37.81;100926.44;5024324;28;20076;-72
2022/05/30 07:08:55;;;;;;;4.35;1.45;;;;;;;17.48;37.71;100930.94;5044094;28;20136;-72
2022/05/30 07:11:23;;;;;;;5.20;1.48;;;;;;;17.50;37.88;100930.78;5042413;28;20045;-72
2022/05/30 07:13:50;;;;;;;4.85;1.80;;;;;;;17.53;38.00;100926.91;5026877;28;20494;-72
2022/05/30 07:16:18;;;;;;;4.78;1.55;;;;;;;17.55;37.60;100920.22;5048267;28;20115;-72
2022/05/30 07:18:46;;;;;;;5.13;1.65;;;;;;;17.59;38.29;100929.06;5039820;28;20084;-72
2022/05/30 07:21:14;;;;;;;3.55;1.02;;;;;;;17.65;38.07;100928.50;5048372;28;20085;-72
2022/05/30 07:23:41;;;;;;;4.53;1.30;;;;;;;17.69;37.91;100929.94;5040537;28;20064;-72
2022/05/30 07:26:16;;;;;;;3.95;1.20;;;;;;;17.76;37.13;100931.09;5047152;28;20049;-72
2022/05/30 07:28:43;;;;;;;3.60;1.65;;;;;;;17.78;37.52;100923.59;5037058;28;20052;-73
2022/05/30 07:31:13;;;;;;;4.15;1.70;;;;;;;17.87;37.60;100934.53;5046436;28;20041;-73
2022/05/30 07:33:42;;;;;;;4.32;1.30;;;;;;;17.92;37.64;100934.09;5039853;28;20053;-73
2022/05/30 07:36:15;;;;;;;4.45;1.50;;;;;;;17.97;37.15;100937.25;5043043;28;20041;-72
2022/05/30 07:38:42;;;;;;;4.13;1.70;;;;;;;17.98;37.28;100939.00;5027643;28;20420;-73
2022/05/30 07:41:09;;;;;;;4.72;2.08;;;;;;;18.02;37.33;100940.44;5041420;28;20124;-73
2022/05/30 07:43:39;;;;;;;8.18;3.47;;;;;;;18.06;37.05;100932.75;5041200;28;20125;-73
2022/05/30 07:46:11;;;;;;;4.97;1.80;;;;;;;18.10;37.48;100935.06;5043952;28;20476;-74
2022/05/30 07:48:38;;;;;;;5.27;1.80;;;;;;;18.12;37.59;100927.53;5026783;28;20380;-73
2022/05/30 07:51:06;;;;;;;6.22;2.00;;;;;;;18.19;36.68;100939.69;5045564;28;20338;-72
2022/05/30 07:53:35;;;;;;;4.88;1.73;;;;;;;18.22;37.18;100938.50;5046420;28;20076;-73
2022/05/30 07:56:06;;;;;;;5.43;2.38;;;;;;;18.28;36.84;100939.78;5047262;28;20572;-73
2022/05/30 07:58:33;;;;;;;5.85;2.20;;;;;;;18.27;37.32;100933.44;5045376;28;20480;-74
2022/05/30 08:00:59;;;;;;;3.88;1.95;;;;;;;18.31;36.73;100942.22;5046277;28;20135;-75
2022/05/30 08:04:16;;;;;;;5.78;2.15;;;;;;;18.28;36.44;100948.03;5066076;23;20115;-84
2022/05/30 08:26:25;;;;;;;4.88;2.70;;;;;;;18.31;36.93;100937.59;4981328;28;20176;-83
2022/05/30 08:29:04;;;;;;;5.80;2.65;;;;;;;18.36;36.19;100935.28;4969262;28;20046;-83
2022/05/30 08:31:37;;;;;;;5.07;2.83;;;;;;;18.35;36.44;100930.78;5000981;28;20049;-84
2022/05/30 08:34:09;;;;;;;5.15;2.80;;;;;;;18.36;36.64;100938.03;4973946;28;20067;-83
2022/05/30 08:36:44;;;;;;;4.75;3.20;;;;;;;18.41;36.04;100941.19;4991878;28;20043;-81
2022/05/30 08:42:08;;;;;;;7.88;4.20;;;;;;;18.40;36.51;100941.31;4991990;28;20178;-85
2022/05/30 08:44:36;;;;;;;5.93;3.60;;;;;;;18.43;36.37;100941.91;4951586;28;20053;-84
2022/05/30 08:47:15;;;;;;;6.80;3.58;;;;;;;18.48;36.70;100946.94;5011777;28;20038;-83
2022/05/30 08:49:52;;;;;;;5.40;3.53;;;;;;;18.52;36.39;100948.38;5015890;28;20104;-81
2022/05/30 08:53:16;;;;;;;7.50;3.78;;;;;;;18.52;36.07;100951.13;4955722;28;20461;-83
2022/05/30 08:56:41;;;;;;;7.70;3.85;;;;;;;18.55;36.44;100956.31;5055115;28;20507;-86
2022/05/30 08:59:26;;;;;;;9.20;3.97;;;;;;;18.60;36.16;100954.03;5045969;28;20064;-85
2022/05/30 09:02:46;;;;;;;7.22;3.85;;;;;;;18.50;36.39;100959.53;5051051;28;20121;-85
2022/05/30 09:05:41;;;;;;;7.73;3.83;;;;;;;18.61;36.36;100955.75;5006568;28;20084;-82
2022/05/30 09:08:52;;;;;;;8.48;4.15;;;;;;;18.61;35.79;100953.84;4955357;28;20301;-83
2022/05/30 09:11:40;;;;;;;5.80;3.50;;;;;;;18.63;35.75;100961.94;4996892;28;20054;-81
2022/05/30 09:14:36;;;;;;;7.90;3.72;;;;;;;18.69;35.53;100960.50;4987641;28;20523;-82
2022/05/30 09:32:22;;;;;;;5.38;3.30;;;;;;;18.79;35.18;100942.91;4981066;28;20049;-83
2022/05/30 09:35:24;;;;;;;6.20;3.60;;;;;;;18.83;35.17;100951.72;5016623;28;20100;-84
2022/05/30 09:38:43;;;;;;;;;;;;;;;;;;;;;
2022/05/30 09:41:27;;;;;;;4.95;3.35;;;;;;;18.89;35.60;100940.97;5072622;28;20048;-84
2022/05/30 09:44:18;;;;;;;5.25;3.15;;;;;;;18.95;34.83;100947.72;5037170;28;20139;-86
2022/05/30 09:51:51;;;;;;;4.95;2.95;;;;;;;18.92;34.95;100946.16;4996708;28;20507;-84
2022/05/30 09:54:38;;;;;;;5.45;2.95;;;;;;;18.93;34.94;100941.53;5021012;28;20059;-80
2022/05/30 09:57:12;;;;;;;5.95;3.13;;;;;;;18.99;34.97;100952.78;5033867;28;20188;-82
2022/05/30 09:59:48;;;;;;;4.63;2.60;;;;;;;19.02;33.99;100948.00;5050588;28;20095;-82
2022/05/30 10:02:20;;;;;;;6.25;2.95;;;;;;;19.02;33.29;100950.75;5034301;28;20898;-81
2022/05/30 10:05:13;;;;;;;4.90;2.63;;;;;;;18.96;33.79;100946.72;5035620;28;20072;-81
2022/05/30 10:08:17;;;;;;;5.13;2.60;;;;;;;18.97;33.79;100948.44;5006236;28;20148;-83
2022/05/30 10:11:32;;;;;;;4.63;1.88;;;;;;;18.92;34.06;100945.31;4982832;28;21140;-85
2022/05/30 10:14:40;;;;;;;3.25;1.75;;;;;;;18.96;33.66;100955.81;4967130;28;20046;-84
2022/05/30 10:18:11;;;;;;;3.22;1.60;;;;;;;18.94;34.30;100949.59;4925455;28;20050;-84
2022/05/30 10:33:33;;;;;;;2.13;1.40;;;;;;;19.08;34.22;100955.63;4920768;29;20054;-86
2022/05/30 10:37:12;;;;;;;3.67;1.50;;;;;;;19.14;33.95;100958.63;4864577;29;20139;-84
2022/05/30 10:44:28;;;;;;;4.03;1.77;;;;;;;19.20;34.70;100955.22;4854473;29;20514;-85
2022/05/30 10:47:45;;;;;;;3.88;1.70;;;;;;;19.25;34.22;100955.66;4856423;29;20188;-84
2022/05/30 10:51:17;;;;;;;2.85;1.35;;;;;;;19.30;34.01;100944.16;4862984;29;20493;-85
2022/05/30 10:54:31;;;;;;;2.72;1.23;;;;;;;19.34;33.98;100957.47;4865575;29;20188;-86
2022/05/30 10:57:57;;;;;;;2.88;1.40;;;;;;;19.40;33.73;100955.97;4897652;29;20504;-85
2022/05/30 11:01:38;;;;;;;3.30;1.40;;;;;;;19.37;33.67;100954.38;4839493;29;20207;-83
2022/05/30 11:05:19;;;;;;;3.38;1.65;;;;;;;19.50;33.17;100959.56;4882683;29;20458;-83
2022/05/30 11:08:36;;;;;;;3.53;1.38;;;;;;;19.55;33.36;100957.19;4895011;29;20056;-84
2022/05/30 11:12:33;;;;;;;3.20;1.30;;;;;;;19.52;33.36;100953.88;4729141;30;20064;-84
2022/05/30 11:15:53;;;;;;;3.53;1.50;;;;;;;19.62;33.46;100952.75;4649120;30;20505;-83
2022/05/30 11:22:46;;;;;;;3.30;1.30;;;;;;;19.75;32.80;100958.75;4672779;30;20078;-84
2022/05/30 11:26:10;;;;;;;4.47;1.27;;;;;;;19.81;32.74;100961.88;4665271;30;20398;-83
2022/05/30 11:29:15;;;;;;;2.08;1.13;;;;;;;19.93;33.07;100957.84;4697280;30;20033;-84
2022/05/30 11:32:53;;;;;;;2.13;1.20;;;;;;;20.00;32.92;100959.81;4693221;30;20516;-85
2022/05/30 11:36:10;;;;;;;2.05;0.90;;;;;;;20.09;32.45;100969.00;4704543;30;20052;-88
2022/05/30 11:39:28;;;;;;;2.05;1.08;;;;;;;20.17;31.95;100970.94;5049378;28;20402;-77
2022/05/30 11:42:13;;;;;;;1.38;0.70;;;;;;;20.23;31.15;100968.41;5038483;28;20585;-77
2022/05/30 11:44:52;;;;;;;2.30;1.00;;;;;;;20.30;30.97;100957.59;5040508;28;20053;-77
2022/05/30 11:47:50;;;;;;;1.73;1.05;;;;;;;20.35;30.83;100956.09;5041403;28;20073;-77
2022/05/30 11:50:31;;;;;;;1.25;0.77;;;;;;;20.40;30.25;100961.13;5038182;28;20063;-77
2022/05/30 11:53:21;;;;;;;2.00;0.90;;;;;;;20.42;30.39;100959.09;5040605;28;20041;-77
2022/05/30 11:56:26;;;;;;;2.50;0.95;;;;;;;20.48;30.39;100958.44;5029922;28;20136;-77
2022/05/30 11:59:04;;;;;;;2.72;1.00;;;;;;;20.50;31.34;100953.63;5041880;28;20128;-77
2022/05/30 12:01:34;;;;;;;2.70;0.93;;;;;;;20.53;31.26;100953.28;5042108;28;20049;-77
2022/05/30 12:04:22;;;;;;;3.25;0.90;;;;;;;20.58;30.57;100952.78;5044488;28;20049;-77
2022/05/30 12:07:06;;;;;;;2.17;0.90;;;;;;;20.54;30.74;100959.66;5039467;28;20071;-77
2022/05/30 12:10:10;;;;;;;2.25;0.90;;;;;;;20.56;30.57;100957.59;5053828;28;20046;-77
2022/05/30 12:12:56;;;;;;;2.72;0.85;;;;;;;20.57;30.64;100965.72;5035243;28;20065;-77
2022/05/30 12:15:47;;;;;;;2.10;0.93;;;;;;;20.56;30.75;100969.50;5036259;28;20139;-77
2022/05/30 12:24:19;;;;;;;2.42;1.00;;;;;;;20.57;30.39;100967.63;5042496;28;20049;-77
2022/05/30 12:26:57;;;;;;;2.83;0.95;;;;;;;20.59;29.84;100962.81;5041323;28;20496;-77
2022/05/30 12:29:39;;;;;;;1.45;0.68;;;;;;;20.60;30.05;100965.38;5040483;28;20401;-77
2022/05/30 12:32:21;;;;;;;0.98;0.70;;;;;;;20.60;30.04;100962.63;5048736;28;20482;-77
2022/05/30 12:37:47;;;;;;;2.95;1.05;;;;;;;20.61;30.92;100966.25;5039774;28;20044;-77
2022/05/30 12:40:13;;;;;;;2.53;0.70;;;;;;;20.63;30.76;100966.94;5039710;28;20654;-75
2022/05/30 12:42:43;;;;;;;2.45;1.00;;;;;;;20.70;30.40;100968.88;5037167;28;20474;-75
2022/05/30 12:45:46;;;;;;;2.20;1.10;;;;;;;20.71;29.94;100970.63;5037584;28;20080;-75
2022/05/30 12:48:13;;;;;;;1.90;1.00;;;;;;;20.77;30.25;100966.31;5031292;28;20484;-75
2022/05/30 12:50:44;;;;;;;2.22;0.82;;;;;;;20.87;29.86;100965.16;5023024;28;20137;-75
2022/05/30 12:53:12;;;;;;;2.70;0.95;;;;;;;20.93;29.89;100957.22;5019052;28;20049;-75
2022/05/30 12:55:42;;;;;;;2.20;0.75;;;;;;;21.03;30.21;100963.50;5027109;28;20132;-75
2022/05/30 12:58:10;;;;;;;2.28;0.90;;;;;;;21.12;30.01;100960.59;5025608;28;20473;-76
2022/05/30 13:00:40;;;;;;;2.30;1.00;;;;;;;21.24;29.69;100959.28;5024733;28;20554;-75
2022/05/30 13:03:29;;;;;;;3.00;0.77;;;;;;;21.33;29.67;100962.06;5024398;28;20072;-75
2022/05/30 13:05:59;;;;;;;2.40;0.88;;;;;;;21.43;29.21;100962.75;5016703;28;20076;-75
2022/05/30 13:08:46;;;;;;;2.45;0.93;;;;;;;21.52;28.84;100962.59;5027718;28;20069;-75
2022/05/30 13:11:27;;;;;;;2.95;0.82;;;;;;;21.64;28.96;100968.66;5025159;28;20595;-75
2022/05/30 13:14:03;;;;;;;2.45;0.75;;;;;;;21.71;29.25;100958.66;5024836;28;20414;-75
2022/05/30 13:16:41;;;;;;;3.15;1.05;;;;;;;21.81;28.21;100964.03;5028479;28;20426;-75
2022/05/30 13:19:12;;;;;;;3.28;1.05;;;;;;;21.87;28.75;100969.72;5025950;28;20045;-75
2022/05/30 13:21:42;;;;;;;1.83;0.98;;;;;;;21.92;28.57;100964.50;5028157;28;20535;-75
2022/05/30 13:24:25;;;;;;;2.72;1.00;;;;;;;21.96;27.80;100960.38;5026381;28;20578;-75
2022/05/30 13:26:53;;;;;;;1.83;0.95;;;;;;;21.97;28.53;100955.75;5028295;28;20049;-76